sensor_id;sensor_type;location;lat;lon;timestamp;temperature;humidity
21518;DHT22;61765;45.794;24.150;2023-02-22T00:04:37;16.10;75.00
21518;DHT22;61765;45.794;24.150;2023-02-22T00:12:46;16.10;74.60
21518;DHT22;61765;45.794;24.150;2023-02-22T00:20:52;16.00;75.00
21518;DHT22;61765;45.794;24.150;2023-02-22T00:29:03;15.90;75.30
21518;DHT22;61765;45.794;24.150;2023-02-22T00:37:10;15.90;75.10
21518;DHT22;61765;45.794;24.150;2023-02-22T00:45:21;15.90;75.20
21518;DHT22;61765;45.794;24.150;2023-02-22T00:53:27;15.70;75.60
21518;DHT22;61765;45.794;24.150;2023-02-22T01:01:35;15.60;75.80
21518;DHT22;61765;45.794;24.150;2023-02-22T01:46:17;15.50;77.40
21518;DHT22;61765;45.794;24.150;2023-02-22T02:31:32;15.40;77.60
21518;DHT22;61765;45.794;24.150;2023-02-22T02:39:49;15.40;76.80
21518;DHT22;61765;45.794;24.150;2023-02-22T02:47:58;15.60;76.60
21518;DHT22;61765;45.794;24.150;2023-02-22T02:56:08;15.60;76.20
21518;DHT22;61765;45.794;24.150;2023-02-22T03:04:36;15.60;76.50
21518;DHT22;61765;45.794;24.150;2023-02-22T03:12:50;15.50;76.30
21518;DHT22;61765;45.794;24.150;2023-02-22T03:21:08;15.50;76.60
21518;DHT22;61765;45.794;24.150;2023-02-22T03:29:20;15.40;76.80
21518;DHT22;61765;45.794;24.150;2023-02-22T03:37:28;14.90;78.10
21518;DHT22;61765;45.794;24.150;2023-02-22T03:45:39;14.90;78.70
21518;DHT22;61765;45.794;24.150;2023-02-22T03:53:46;15.00;78.70
21518;DHT22;61765;45.794;24.150;2023-02-22T04:01:58;14.70;79.40
21518;DHT22;61765;45.794;24.150;2023-02-22T04:10:05;14.60;79.70
21518;DHT22;61765;45.794;24.150;2023-02-22T04:18:15;14.70;79.80
21518;DHT22;61765;45.794;24.150;2023-02-22T04:26:22;15.00;79.30
21518;DHT22;61765;45.794;24.150;2023-02-22T04:34:33;14.90;79.20
21518;DHT22;61765;45.794;24.150;2023-02-22T04:42:39;15.00;79.40
21518;DHT22;61765;45.794;24.150;2023-02-22T04:50:48;15.00;78.90
21518;DHT22;61765;45.794;24.150;2023-02-22T04:58:54;14.90;78.90
21518;DHT22;61765;45.794;24.150;2023-02-22T05:07:02;14.90;79.20
21518;DHT22;61765;45.794;24.150;2023-02-22T05:15:08;15.00;79.00
21518;DHT22;61765;45.794;24.150;2023-02-22T05:23:16;15.00;79.00
21518;DHT22;61765;45.794;24.150;2023-02-22T05:31:22;15.00;79.20
21518;DHT22;61765;45.794;24.150;2023-02-22T05:39:30;15.00;79.30
21518;DHT22;61765;45.794;24.150;2023-02-22T05:47:35;15.20;79.20
21518;DHT22;61765;45.794;24.150;2023-02-22T05:55:43;15.30;79.00
21518;DHT22;61765;45.794;24.150;2023-02-22T06:03:50;15.20;79.40
21518;DHT22;61765;45.794;24.150;2023-02-22T06:11:58;15.10;79.40
21518;DHT22;61765;45.794;24.150;2023-02-22T06:20:04;15.20;79.50
21518;DHT22;61765;45.794;24.150;2023-02-22T06:28:12;15.20;79.40
21518;DHT22;61765;45.794;24.150;2023-02-22T06:36:18;15.30;79.00
21518;DHT22;61765;45.794;24.150;2023-02-22T06:44:26;15.30;78.80
21518;DHT22;61765;45.794;24.150;2023-02-22T06:52:31;15.10;79.50
21518;DHT22;61765;45.794;24.150;2023-02-22T07:00:39;15.50;78.80
21518;DHT22;61765;45.794;24.150;2023-02-22T07:08:45;15.70;78.60
21518;DHT22;61765;45.794;24.150;2023-02-22T07:16:53;15.70;78.30
21518;DHT22;61765;45.794;24.150;2023-02-22T07:24:59;16.00;77.80
21518;DHT22;61765;45.794;24.150;2023-02-22T07:33:08;16.10;77.40
21518;DHT22;61765;45.794;24.150;2023-02-22T07:41:14;16.40;77.10
21518;DHT22;61765;45.794;24.150;2023-02-22T07:49:23;16.80;76.30
21518;DHT22;61765;45.794;24.150;2023-02-22T07:57:28;17.70;75.40
21518;DHT22;61765;45.794;24.150;2023-02-22T08:05:38;18.60;72.20
21518;DHT22;61765;45.794;24.150;2023-02-22T08:13:44;18.50;71.40
21518;DHT22;61765;45.794;24.150;2023-02-22T08:21:54;18.30;71.50
21518;DHT22;61765;45.794;24.150;2023-02-22T08:30:00;18.10;72.40
21518;DHT22;61765;45.794;24.150;2023-02-22T08:38:15;17.90;72.60
21518;DHT22;61765;45.794;24.150;2023-02-22T08:46:21;18.10;72.60
21518;DHT22;61765;45.794;24.150;2023-02-22T08:54:29;18.10;72.20
21518;DHT22;61765;45.794;24.150;2023-02-22T09:02:35;18.00;72.40
21518;DHT22;61765;45.794;24.150;2023-02-22T09:10:43;18.00;73.40
21518;DHT22;61765;45.794;24.150;2023-02-22T09:18:49;18.70;73.10
21518;DHT22;61765;45.794;24.150;2023-02-22T09:26:57;20.20;68.80
21518;DHT22;61765;45.794;24.150;2023-02-22T09:35:06;21.00;67.30
21518;DHT22;61765;45.794;24.150;2023-02-22T09:43:32;21.20;63.60
21518;DHT22;61765;45.794;24.150;2023-02-22T09:51:42;19.60;66.40
21518;DHT22;61765;45.794;24.150;2023-02-22T09:59:58;19.30;67.80
21518;DHT22;61765;45.794;24.150;2023-02-22T10:08:18;18.50;68.70
21518;DHT22;61765;45.794;24.150;2023-02-22T10:16:31;18.00;69.70
21518;DHT22;61765;45.794;24.150;2023-02-22T10:24:46;17.90;69.80
21518;DHT22;61765;45.794;24.150;2023-02-22T10:33:04;18.10;69.90
21518;DHT22;61765;45.794;24.150;2023-02-22T10:41:19;18.40;69.40
21518;DHT22;61765;45.794;24.150;2023-02-22T10:49:33;18.80;68.70
21518;DHT22;61765;45.794;24.150;2023-02-22T10:57:42;19.10;67.50
21518;DHT22;61765;45.794;24.150;2023-02-22T11:05:51;19.10;67.20
21518;DHT22;61765;45.794;24.150;2023-02-22T11:13:57;18.70;67.50
21518;DHT22;61765;45.794;24.150;2023-02-22T11:22:12;18.30;68.00
21518;DHT22;61765;45.794;24.150;2023-02-22T11:30:24;18.20;68.60
21518;DHT22;61765;45.794;24.150;2023-02-22T11:38:35;18.00;69.00
21518;DHT22;61765;45.794;24.150;2023-02-22T11:46:41;18.10;69.20
21518;DHT22;61765;45.794;24.150;2023-02-22T11:55:08;18.80;69.40
21518;DHT22;61765;45.794;24.150;2023-02-22T12:04:03;19.80;66.80
21518;DHT22;61765;45.794;24.150;2023-02-22T12:12:24;20.40;64.50
21518;DHT22;61765;45.794;24.150;2023-02-22T12:20:38;20.60;63.60
21518;DHT22;61765;45.794;24.150;2023-02-22T12:28:52;20.00;62.90
21518;DHT22;61765;45.794;24.150;2023-02-22T12:37:08;19.40;64.20
21518;DHT22;61765;45.794;24.150;2023-02-22T12:45:25;19.30;65.20
21518;DHT22;61765;45.794;24.150;2023-02-22T12:53:34;18.90;64.50
21518;DHT22;61765;45.794;24.150;2023-02-22T13:01:45;18.70;66.00
21518;DHT22;61765;45.794;24.150;2023-02-22T13:10:18;19.40;65.40
21518;DHT22;61765;45.794;24.150;2023-02-22T13:18:33;19.30;65.80
21518;DHT22;61765;45.794;24.150;2023-02-22T13:26:44;19.60;64.90
21518;DHT22;61765;45.794;24.150;2023-02-22T13:35:18;19.70;64.00
21518;DHT22;61765;45.794;24.150;2023-02-22T13:43:52;19.30;65.00
21518;DHT22;61765;45.794;24.150;2023-02-22T13:52:06;18.90;65.30
21518;DHT22;61765;45.794;24.150;2023-02-22T14:00:22;19.10;65.20
21518;DHT22;61765;45.794;24.150;2023-02-22T14:08:46;19.00;64.90
21518;DHT22;61765;45.794;24.150;2023-02-22T14:17:20;18.70;65.40
21518;DHT22;61765;45.794;24.150;2023-02-22T14:25:37;18.60;65.60
21518;DHT22;61765;45.794;24.150;2023-02-22T14:33:56;18.60;65.50
21518;DHT22;61765;45.794;24.150;2023-02-22T14:42:06;18.70;65.50
21518;DHT22;61765;45.794;24.150;2023-02-22T14:50:16;18.40;65.60
21518;DHT22;61765;45.794;24.150;2023-02-22T14:58:31;18.30;65.60
21518;DHT22;61765;45.794;24.150;2023-02-22T15:06:38;18.10;65.80
21518;DHT22;61765;45.794;24.150;2023-02-22T15:14:46;18.00;66.40
21518;DHT22;61765;45.794;24.150;2023-02-22T15:22:58;17.90;66.50
21518;DHT22;61765;45.794;24.150;2023-02-22T15:31:22;17.80;66.90
21518;DHT22;61765;45.794;24.150;2023-02-22T15:39:29;17.70;67.40
21518;DHT22;61765;45.794;24.150;2023-02-22T15:47:38;17.50;68.40
21518;DHT22;61765;45.794;24.150;2023-02-22T15:55:44;17.40;68.70
21518;DHT22;61765;45.794;24.150;2023-02-22T16:03:56;17.10;68.90
21518;DHT22;61765;45.794;24.150;2023-02-22T16:12:19;17.00;70.20
21518;DHT22;61765;45.794;24.150;2023-02-22T16:20:33;16.80;70.10
21518;DHT22;61765;45.794;24.150;2023-02-22T16:28:46;16.60;70.70
21518;DHT22;61765;45.794;24.150;2023-02-22T16:36:56;16.50;71.50
21518;DHT22;61765;45.794;24.150;2023-02-22T16:45:02;16.40;71.50
21518;DHT22;61765;45.794;24.150;2023-02-22T16:53:11;16.30;71.90
21518;DHT22;61765;45.794;24.150;2023-02-22T17:01:17;16.10;72.40
21518;DHT22;61765;45.794;24.150;2023-02-22T17:09:27;16.10;72.70
21518;DHT22;61765;45.794;24.150;2023-02-22T17:17:32;16.00;72.80
21518;DHT22;61765;45.794;24.150;2023-02-22T17:25:42;15.80;73.20
21518;DHT22;61765;45.794;24.150;2023-02-22T17:33:48;15.70;73.80
21518;DHT22;61765;45.794;24.150;2023-02-22T17:41:57;15.60;74.00
21518;DHT22;61765;45.794;24.150;2023-02-22T17:50:03;15.30;74.20
21518;DHT22;61765;45.794;24.150;2023-02-22T17:58:11;15.30;74.50
21518;DHT22;61765;45.794;24.150;2023-02-22T18:06:19;14.90;74.90
21518;DHT22;61765;45.794;24.150;2023-02-22T18:14:31;14.90;74.70
21518;DHT22;61765;45.794;24.150;2023-02-22T18:22:36;14.60;75.20
21518;DHT22;61765;45.794;24.150;2023-02-22T18:30:47;14.60;75.20
21518;DHT22;61765;45.794;24.150;2023-02-22T18:38:55;14.50;75.40
21518;DHT22;61765;45.794;24.150;2023-02-22T18:47:04;14.20;75.60
21518;DHT22;61765;45.794;24.150;2023-02-22T18:55:11;13.70;75.80
21518;DHT22;61765;45.794;24.150;2023-02-22T19:03:21;13.80;76.50
21518;DHT22;61765;45.794;24.150;2023-02-22T19:11:27;13.80;76.70
21518;DHT22;61765;45.794;24.150;2023-02-22T19:19:35;13.80;76.50
21518;DHT22;61765;45.794;24.150;2023-02-22T19:27:41;12.60;79.40
21518;DHT22;61765;45.794;24.150;2023-02-22T19:35:49;13.00;78.20
21518;DHT22;61765;45.794;24.150;2023-02-22T19:43:55;13.30;77.80
21518;DHT22;61765;45.794;24.150;2023-02-22T19:52:03;12.30;78.60
21518;DHT22;61765;45.794;24.150;2023-02-22T20:00:11;12.90;79.00
21518;DHT22;61765;45.794;24.150;2023-02-22T20:08:28;13.40;77.30
21518;DHT22;61765;45.794;24.150;2023-02-22T20:16:34;13.60;76.40
21518;DHT22;61765;45.794;24.150;2023-02-22T20:24:42;13.70;76.30
21518;DHT22;61765;45.794;24.150;2023-02-22T20:32:48;13.60;75.40
21518;DHT22;61765;45.794;24.150;2023-02-22T20:40:57;13.70;75.90
21518;DHT22;61765;45.794;24.150;2023-02-22T20:49:04;13.80;75.50
21518;DHT22;61765;45.794;24.150;2023-02-22T20:57:15;13.90;75.60
21518;DHT22;61765;45.794;24.150;2023-02-22T21:05:21;13.90;75.60
21518;DHT22;61765;45.794;24.150;2023-02-22T21:13:29;13.70;75.40
21518;DHT22;61765;45.794;24.150;2023-02-22T21:21:35;13.70;75.70
21518;DHT22;61765;45.794;24.150;2023-02-22T21:29:43;13.60;76.00
21518;DHT22;61765;45.794;24.150;2023-02-22T21:37:49;13.60;76.00
21518;DHT22;61765;45.794;24.150;2023-02-22T21:46:01;13.60;76.20
21518;DHT22;61765;45.794;24.150;2023-02-22T21:54:09;13.70;76.50
21518;DHT22;61765;45.794;24.150;2023-02-22T22:02:18;13.40;76.00
21518;DHT22;61765;45.794;24.150;2023-02-22T22:10:23;13.20;76.80
21518;DHT22;61765;45.794;24.150;2023-02-22T22:18:39;13.10;77.00
21518;DHT22;61765;45.794;24.150;2023-02-22T22:26:46;12.90;77.50
21518;DHT22;61765;45.794;24.150;2023-02-22T22:34:55;12.90;77.60
21518;DHT22;61765;45.794;24.150;2023-02-22T22:43:00;12.70;78.10
21518;DHT22;61765;45.794;24.150;2023-02-22T22:51:12;12.50;78.10
21518;DHT22;61765;45.794;24.150;2023-02-22T22:59:19;12.10;78.80
21518;DHT22;61765;45.794;24.150;2023-02-22T23:07:28;12.10;79.10
21518;DHT22;61765;45.794;24.150;2023-02-22T23:15:33;12.10;79.00
21518;DHT22;61765;45.794;24.150;2023-02-22T23:23:42;12.10;79.60
21518;DHT22;61765;45.794;24.150;2023-02-22T23:31:49;12.10;79.70
21518;DHT22;61765;45.794;24.150;2023-02-22T23:39:58;12.00;80.00
21518;DHT22;61765;45.794;24.150;2023-02-22T23:48:06;12.00;80.20
21518;DHT22;61765;45.794;24.150;2023-02-22T23:56:17;11.80;80.20
